Time;durP1;ratioP1;P1;durP2;ratioP2;P2;SDS_P1;SDS_P2;PMS_P1;PMS_P2;Temp;Humidity;BMP_temperature;BMP_pressure;BME280_temperature;BME280_humidity;BME280_pressure;Samples;Min_cycle;Max_cycle;Signal;HPM_P1;HPM_P2
2023/04/25 00:01:52;;;;;;;12.73;4.78;;;;;;;8.28;100.00;101017.09;5273865;28;20037;-72
2023/04/25 00:04:23;;;;;;;13.32;4.80;;;;;;;8.27;100.00;101021.50;5264388;28;20024;-72
2023/04/25 00:06:55;;;;;;;11.90;5.57;;;;;;;8.29;100.00;101013.53;5279071;28;20403;-72
2023/04/25 00:09:27;;;;;;;10.85;4.88;;;;;;;8.22;100.00;101014.91;5278223;28;20031;-72
2023/04/25 00:11:58;;;;;;;15.35;5.18;;;;;;;8.20;100.00;101025.47;5272127;28;20031;-72
2023/04/25 00:14:30;;;;;;;13.13;5.18;;;;;;;8.18;100.00;101032.59;5275165;28;20547;-72
2023/04/25 00:17:02;;;;;;;12.40;4.65;;;;;;;8.08;100.00;101028.16;5280913;28;20054;-72
2023/04/25 00:19:34;;;;;;;11.60;4.83;;;;;;;8.15;100.00;101030.22;5284020;28;20081;-72
2023/04/25 00:22:05;;;;;;;14.93;5.03;;;;;;;8.06;100.00;101028.25;5277353;28;20081;-72
2023/04/25 00:24:37;;;;;;;11.80;4.95;;;;;;;8.02;100.00;101029.41;5284963;28;20032;-72
2023/04/25 00:27:08;;;;;;;16.08;4.85;;;;;;;8.12;100.00;101037.44;5278704;28;20040;-72
2023/04/25 00:29:40;;;;;;;12.32;4.45;;;;;;;8.09;100.00;101032.41;5283091;28;20732;-72
2023/04/25 00:32:11;;;;;;;13.70;4.70;;;;;;;8.14;100.00;101033.75;5280917;28;20024;-72
2023/04/25 00:34:42;;;;;;;12.40;4.97;;;;;;;8.09;100.00;101028.03;5281654;28;20081;-72
2023/04/25 00:37:13;;;;;;;11.93;4.75;;;;;;;8.07;100.00;101018.63;5285923;28;20035;-72
2023/04/25 00:39:45;;;;;;;11.27;4.20;;;;;;;8.12;100.00;101027.81;5284892;28;20453;-72
2023/04/25 00:42:16;;;;;;;12.57;4.80;;;;;;;8.06;100.00;101023.03;5263870;28;20119;-72
2023/04/25 00:44:48;;;;;;;15.13;5.30;;;;;;;8.03;100.00;101023.22;5281997;28;20032;-72
2023/04/25 00:47:19;;;;;;;14.57;5.47;;;;;;;7.95;100.00;101026.38;5283823;28;20043;-72
2023/04/25 00:49:51;;;;;;;12.45;5.03;;;;;;;7.99;100.00;101025.25;5280268;28;20413;-72
2023/04/25 00:52:22;;;;;;;9.80;4.75;;;;;;;8.05;100.00;101022.19;5279954;28;20074;-72
2023/04/25 00:54:54;;;;;;;11.90;4.65;;;;;;;7.98;100.00;101025.34;5278771;28;20036;-72
2023/04/25 00:57:25;;;;;;;12.25;5.05;;;;;;;7.99;100.00;101034.84;5264103;28;20409;-72
2023/04/25 00:59:58;;;;;;;13.27;5.13;;;;;;;7.99;100.00;101025.25;5269680;28;20047;-72
2023/04/25 01:02:30;;;;;;;13.25;5.22;;;;;;;8.03;100.00;101023.22;5281642;28;20036;-72
2023/04/25 01:05:02;;;;;;;12.88;4.60;;;;;;;7.98;100.00;101033.19;5263179;28;20036;-72
2023/04/25 01:07:34;;;;;;;12.93;6.07;;;;;;;7.98;100.00;101035.78;5279770;28;20070;-72
2023/04/25 01:10:06;;;;;;;15.38;4.95;;;;;;;7.90;100.00;101038.09;5279145;28;20498;-72
2023/04/25 01:12:38;;;;;;;16.25;5.15;;;;;;;7.83;100.00;101024.66;5257186;28;20486;-72
2023/04/25 01:15:10;;;;;;;14.43;5.72;;;;;;;7.83;100.00;101032.47;5280396;28;20031;-72
2023/04/25 01:17:43;;;;;;;12.80;4.75;;;;;;;7.84;100.00;101036.78;5284580;28;20028;-72
2023/04/25 01:20:15;;;;;;;13.15;4.97;;;;;;;7.76;100.00;101032.06;5282727;28;20020;-73
2023/04/25 01:22:47;;;;;;;12.07;5.50;;;;;;;7.75;100.00;101038.22;5277742;28;20029;-72
2023/04/25 01:25:18;;;;;;;10.95;5.10;;;;;;;7.71;100.00;101039.38;5285084;28;20317;-72
2023/04/25 01:27:50;;;;;;;15.68;5.30;;;;;;;7.65;100.00;101037.22;5287896;28;20089;-72
2023/04/25 01:30:22;;;;;;;11.77;4.82;;;;;;;7.67;100.00;101042.31;5263074;28;20047;-73
2023/04/25 01:32:57;;;;;;;8.07;4.03;;;;;;;7.73;100.00;101037.53;5284863;28;20093;-72
2023/04/25 01:35:28;;;;;;;11.13;4.57;;;;;;;7.60;100.00;101035.88;5267842;28;20032;-72
2023/04/25 01:38:00;;;;;;;15.50;5.57;;;;;;;7.65;100.00;101047.66;5284055;28;20465;-72
2023/04/25 01:40:33;;;;;;;12.80;5.65;;;;;;;7.57;100.00;101042.94;5282292;28;20108;-72
2023/04/25 01:43:04;;;;;;;12.57;5.72;;;;;;;7.63;100.00;101044.31;5261188;28;20288;-72
2023/04/25 01:45:36;;;;;;;12.88;5.45;;;;;;;7.55;100.00;101044.84;5281788;28;20031;-72
2023/04/25 01:48:09;;;;;;;15.10;5.72;;;;;;;7.61;100.00;101040.13;5263094;28;20033;-72
2023/04/25 01:50:41;;;;;;;14.13;4.85;;;;;;;7.56;100.00;101038.69;5276514;28;20102;-72
2023/04/25 01:53:13;;;;;;;14.27;5.07;;;;;;;7.53;100.00;101057.13;5281347;28;20115;-72
2023/04/25 01:55:44;;;;;;;15.55;5.82;;;;;;;7.52;100.00;101052.88;5280555;28;20154;-73
2023/04/25 01:58:15;;;;;;;11.75;5.60;;;;;;;7.56;100.00;101046.50;5278511;28;20107;-72
2023/04/25 02:00:47;;;;;;;12.20;6.00;;;;;;;7.63;100.00;101046.91;5276276;28;20059;-72
2023/04/25 02:03:18;;;;;;;14.95;6.75;;;;;;;7.54;100.00;101048.38;5280598;28;20048;-72
2023/04/25 02:05:49;;;;;;;14.82;6.05;;;;;;;7.60;100.00;101049.72;5276305;28;20066;-72
2023/04/25 02:08:21;;;;;;;11.25;5.82;;;;;;;7.60;100.00;101038.47;5281364;28;20036;-72
2023/04/25 02:10:52;;;;;;;12.80;5.90;;;;;;;7.66;100.00;101062.34;5284281;28;20028;-72
2023/04/25 02:13:23;;;;;;;13.32;5.63;;;;;;;7.61;100.00;101058.38;5258911;28;20025;-72
2023/04/25 02:15:54;;;;;;;14.32;5.78;;;;;;;7.65;100.00;101059.84;5281741;28;20028;-72
2023/04/25 02:18:26;;;;;;;16.52;7.05;;;;;;;7.56;100.00;101063.91;5280259;28;20036;-72
2023/04/25 02:21:01;;;;;;;13.07;5.70;;;;;;;7.67;100.00;101068.41;5280257;28;20035;-72
2023/04/25 02:23:32;;;;;;;14.98;6.40;;;;;;;7.56;100.00;101062.13;5278449;28;20114;-72
2023/04/25 02:26:03;;;;;;;17.98;7.15;;;;;;;7.52;100.00;101068.50;5281224;28;20094;-72
2023/04/25 02:28:35;;;;;;;16.15;6.30;;;;;;;7.52;100.00;101071.13;5276666;28;20031;-73
2023/04/25 02:31:06;;;;;;;15.10;6.47;;;;;;;7.47;100.00;101072.38;5260376;28;20742;-72
2023/04/25 02:33:37;;;;;;;15.77;6.47;;;;;;;7.41;100.00;101063.19;5284868;28;20486;-72
2023/04/25 02:36:09;;;;;;;14.93;6.80;;;;;;;7.43;100.00;101068.31;5276755;28;20397;-72
2023/04/25 02:38:40;;;;;;;11.73;5.70;;;;;;;7.37;100.00;101071.31;5282420;28;20041;-72
2023/04/25 02:41:11;;;;;;;12.20;6.18;;;;;;;7.31;100.00;101068.22;5282346;28;20031;-72
2023/04/25 02:43:42;;;;;;;15.52;5.63;;;;;;;7.36;100.00;101067.06;5281331;28;20031;-72
2023/04/25 02:46:14;;;;;;;13.73;6.50;;;;;;;7.28;100.00;101072.78;5276944;28;20038;-72
2023/04/25 02:48:45;;;;;;;11.52;6.15;;;;;;;7.25;100.00;101071.22;5283906;28;20039;-73
2023/04/25 02:51:17;;;;;;;13.93;5.85;;;;;;;7.22;100.00;101071.41;5278733;28;20070;-72
2023/04/25 02:53:48;;;;;;;12.35;5.75;;;;;;;7.21;100.00;101066.31;5277030;28;20038;-72
2023/04/25 02:56:19;;;;;;;15.32;6.20;;;;;;;7.16;100.00;101068.38;5263433;28;20043;-72
2023/04/25 02:58:50;;;;;;;15.98;6.30;;;;;;;7.08;100.00;101061.06;5283322;28;20028;-72
2023/04/25 03:01:22;;;;;;;12.73;5.47;;;;;;;7.15;100.00;101064.94;5294859;28;20074;-72
2023/04/25 03:03:53;;;;;;;16.55;5.53;;;;;;;7.11;100.00;101068.69;5299706;28;20097;-72
2023/04/25 03:06:24;;;;;;;15.07;5.60;;;;;;;7.13;100.00;101073.81;5302252;28;20808;-72
2023/04/25 03:08:56;;;;;;;16.67;5.47;;;;;;;7.11;100.00;101081.72;5302113;28;20126;-72
2023/04/25 03:11:27;;;;;;;13.45;6.63;;;;;;;7.04;100.00;101072.63;5299216;28;20107;-72
2023/04/25 03:13:58;;;;;;;15.60;6.20;;;;;;;7.03;100.00;101078.78;5298820;28;20493;-72
2023/04/25 03:16:30;;;;;;;24.58;7.55;;;;;;;6.98;100.00;101075.66;5300638;28;20501;-72
2023/04/25 03:19:03;;;;;;;15.70;5.85;;;;;;;6.90;100.00;101078.78;5299343;28;20115;-72
2023/04/25 03:21:35;;;;;;;14.18;6.05;;;;;;;6.93;100.00;101062.94;5305048;28;20549;-72
2023/04/25 03:24:07;;;;;;;12.70;5.80;;;;;;;7.05;100.00;101079.53;5281499;28;20508;-72
2023/04/25 03:26:38;;;;;;;16.27;5.70;;;;;;;6.99;100.00;101070.34;5298992;28;20019;-72
2023/04/25 03:29:09;;;;;;;15.40;5.85;;;;;;;7.07;100.00;101081.09;5299063;28;20024;-71
2023/04/25 03:31:41;;;;;;;18.42;5.97;;;;;;;7.10;100.00;101079.22;5299257;28;20067;-71
2023/04/25 03:34:14;;;;;;;19.65;6.32;;;;;;;7.13;100.00;101073.81;5298489;28;20062;-71
2023/04/25 03:36:45;;;;;;;13.02;5.75;;;;;;;7.18;100.00;101075.16;5290826;28;20079;-72
2023/04/25 03:39:16;;;;;;;19.90;6.63;;;;;;;7.16;100.00;101079.66;5296029;28;20023;-71
2023/04/25 03:41:47;;;;;;;17.27;6.15;;;;;;;7.16;100.00;101084.00;5292226;28;20058;-72
2023/04/25 03:44:19;;;;;;;18.98;5.93;;;;;;;7.16;100.00;101076.19;5295736;28;20107;-72
2023/04/25 03:46:50;;;;;;;17.58;5.80;;;;;;;7.23;100.00;101082.66;5302798;28;20096;-71
2023/04/25 03:49:21;;;;;;;17.45;5.30;;;;;;;7.30;100.00;101078.72;5301543;28;20484;-72
2023/04/25 03:51:52;;;;;;;14.82;5.60;;;;;;;7.29;100.00;101079.66;5299486;28;20522;-71
2023/04/25 03:54:24;;;;;;;14.60;5.45;;;;;;;7.30;100.00;101089.16;5294903;28;20405;-71
2023/04/25 03:56:55;;;;;;;18.45;5.97;;;;;;;7.25;100.00;101088.63;5304530;28;20463;-71
2023/04/25 03:59:26;;;;;;;12.95;5.03;;;;;;;7.25;100.00;101086.03;5299776;28;20528;-71
2023/04/25 04:01:57;;;;;;;12.70;4.68;;;;;;;7.28;100.00;101091.88;5280158;28;20047;-71
2023/04/25 04:04:29;;;;;;;14.05;6.00;;;;;;;7.19;100.00;101094.22;5278157;28;20032;-71
2023/04/25 04:07:01;;;;;;;14.25;4.68;;;;;;;7.24;100.00;101097.38;5276813;28;20064;-72
2023/04/25 04:09:32;;;;;;;17.35;5.30;;;;;;;7.27;100.00;101102.38;5261708;28;20131;-71
2023/04/25 04:12:04;;;;;;;14.65;4.60;;;;;;;7.23;100.00;101100.91;5282427;28;20023;-71
2023/04/25 04:14:35;;;;;;;16.00;5.15;;;;;;;7.20;100.00;101104.56;5279376;28;20054;-71
2023/04/25 04:17:06;;;;;;;17.35;5.55;;;;;;;7.20;100.00;101101.97;5273192;28;20035;-71
2023/04/25 04:19:38;;;;;;;18.15;5.10;;;;;;;7.09;100.00;101094.03;5277112;28;20024;-71
2023/04/25 04:22:09;;;;;;;13.30;5.07;;;;;;;7.18;100.00;101103.81;5276725;28;20423;-72
2023/04/25 04:24:43;;;;;;;15.88;5.72;;;;;;;7.19;100.00;101105.50;5280070;28;20135;-71
2023/04/25 04:27:17;;;;;;;15.82;5.57;;;;;;;7.19;100.00;101109.88;5277415;28;20020;-71
2023/04/25 04:29:50;;;;;;;13.75;4.82;;;;;;;7.21;100.00;101108.84;5272601;28;20032;-71
2023/04/25 04:32:23;;;;;;;17.17;5.17;;;;;;;7.33;100.00;101117.63;5277027;28;20127;-71
2023/04/25 04:34:55;;;;;;;18.42;5.22;;;;;;;7.31;100.00;101115.13;5274340;28;20067;-72
2023/04/25 04:37:26;;;;;;;15.77;5.07;;;;;;;7.36;100.00;101120.03;5260762;28;20042;-73
2023/04/25 04:39:57;;;;;;;17.30;6.45;;;;;;;7.30;100.00;101112.59;5276234;28;20024;-72
2023/04/25 04:42:29;;;;;;;12.68;5.07;;;;;;;7.37;100.00;101123.47;5274654;28;20032;-72
2023/04/25 04:45:01;;;;;;;14.75;5.20;;;;;;;7.33;100.00;101120.22;5274984;28;20268;-72
2023/04/25 04:47:33;;;;;;;18.13;5.13;;;;;;;7.40;100.00;101120.66;5277769;28;20516;-72
2023/04/25 04:50:09;;;;;;;15.05;4.63;;;;;;;7.44;100.00;101127.31;5272065;28;20196;-72
2023/04/25 04:52:40;;;;;;;16.85;4.97;;;;;;;7.38;100.00;101138.16;5279666;28;20061;-72
2023/04/25 04:55:11;;;;;;;15.30;4.78;;;;;;;7.38;100.00;101135.53;5261040;28;20021;-72
2023/04/25 04:57:43;;;;;;;17.48;5.63;;;;;;;7.33;100.00;101138.47;5280729;28;20433;-72
2023/04/25 05:00:15;;;;;;;12.98;4.95;;;;;;;7.34;100.00;101142.72;5262698;28;20052;-72
2023/04/25 05:02:46;;;;;;;14.57;5.35;;;;;;;7.35;100.00;101135.75;5298190;28;20031;-73
2023/04/25 05:05:18;;;;;;;12.15;4.82;;;;;;;7.41;100.00;101150.97;5295340;28;20032;-74
2023/04/25 05:07:49;;;;;;;13.27;5.13;;;;;;;7.44;100.00;101158.59;5287362;28;20070;-73
2023/04/25 05:10:20;;;;;;;14.80;5.05;;;;;;;7.46;100.00;101165.41;5299660;28;20051;-73
2023/04/25 05:12:52;;;;;;;13.48;6.07;;;;;;;7.47;100.00;101156.63;5304237;28;20467;-74
2023/04/25 05:15:23;;;;;;;15.90;5.88;;;;;;;7.60;100.00;101166.22;5301518;28;20077;-74
2023/04/25 05:17:54;;;;;;;16.55;5.50;;;;;;;7.59;100.00;101165.41;5286156;28;20119;-74
2023/04/25 05:20:25;;;;;;;15.30;6.05;;;;;;;7.61;100.00;101170.50;5297489;28;20421;-74
2023/04/25 05:22:57;;;;;;;15.73;5.50;;;;;;;7.67;100.00;101172.72;5276870;28;20435;-74
2023/04/25 05:25:28;;;;;;;12.48;5.15;;;;;;;7.70;100.00;101183.78;5304345;28;20028;-74
2023/04/25 05:27:59;;;;;;;14.48;5.63;;;;;;;7.76;100.00;101182.50;5296921;28;20023;-75
2023/04/25 05:30:31;;;;;;;15.07;5.55;;;;;;;7.80;100.00;101178.75;5302252;28;20229;-74
2023/04/25 05:33:02;;;;;;;19.52;5.70;;;;;;;7.72;100.00;101178.44;5297509;28;20480;-75
2023/04/25 05:35:33;;;;;;;18.30;5.65;;;;;;;7.76;100.00;101179.91;5299711;28;20441;-75
2023/04/25 05:38:05;;;;;;;18.02;6.28;;;;;;;7.66;100.00;101179.69;5298187;28;20024;-73
2023/04/25 05:40:36;;;;;;;18.90;5.93;;;;;;;7.66;100.00;101178.88;5295638;28;20023;-71
2023/04/25 05:43:08;;;;;;;14.68;5.97;;;;;;;7.80;100.00;101184.81;5298745;28;20028;-73
2023/04/25 05:45:39;;;;;;;14.93;5.97;;;;;;;7.79;100.00;101184.91;5282183;28;20028;-73
2023/04/25 05:48:10;;;;;;;21.55;6.18;;;;;;;7.79;100.00;101185.75;5283043;28;20560;-73
2023/04/25 05:50:41;;;;;;;16.05;5.72;;;;;;;7.89;100.00;101192.97;5305196;28;20020;-73
2023/04/25 05:53:13;;;;;;;13.68;5.95;;;;;;;7.97;100.00;101190.66;5298742;28;20066;-74
2023/04/25 05:55:44;;;;;;;20.60;6.40;;;;;;;8.02;100.00;101199.84;5291670;28;20020;-73
2023/04/25 05:58:15;;;;;;;17.35;5.65;;;;;;;8.10;100.00;101207.13;5303921;28;20076;-73
2023/04/25 06:00:46;;;;;;;19.25;5.97;;;;;;;8.12;100.00;101213.09;5290711;28;20825;-74
2023/04/25 06:03:18;;;;;;;19.65;5.75;;;;;;;8.16;100.00;101213.72;5280151;28;20028;-73
2023/04/25 06:05:49;;;;;;;16.25;5.45;;;;;;;8.16;100.00;101211.13;5280792;28;20034;-74
2023/04/25 06:08:20;;;;;;;16.90;5.38;;;;;;;8.18;100.00;101214.44;5278432;28;20074;-73
2023/04/25 06:10:52;;;;;;;17.27;6.32;;;;;;;8.19;100.00;101219.56;5260451;28;20044;-73
2023/04/25 06:13:23;;;;;;;16.88;6.38;;;;;;;8.27;100.00;101222.47;5280115;28;20031;-73
2023/04/25 06:15:54;;;;;;;17.55;6.53;;;;;;;8.30;100.00;101221.44;5275812;28;20042;-73
2023/04/25 06:18:25;;;;;;;17.98;5.85;;;;;;;8.23;100.00;101228.03;5257390;28;20056;-73
2023/04/25 06:20:57;;;;;;;14.45;5.00;;;;;;;8.24;100.00;101234.91;5284694;28;20020;-71
2023/04/25 06:23:28;;;;;;;14.23;5.40;;;;;;;8.27;100.00;101234.69;5281185;28;20024;-71
2023/04/25 06:25:59;;;;;;;12.00;4.60;;;;;;;8.22;100.00;101219.38;5279584;28;20469;-71
2023/04/25 06:28:31;;;;;;;8.95;4.05;;;;;;;8.32;100.00;101240.44;5280104;28;20035;-71
2023/04/25 06:31:02;;;;;;;11.70;4.18;;;;;;;8.36;100.00;101228.84;5278720;28;20047;-72
2023/04/25 06:33:33;;;;;;;14.05;4.07;;;;;;;8.41;100.00;101233.75;5280555;28;20035;-72
2023/04/25 06:36:05;;;;;;;11.68;2.85;;;;;;;8.55;100.00;101238.88;5285988;28;20117;-72
2023/04/25 06:38:36;;;;;;;10.15;3.13;;;;;;;8.50;100.00;101244.41;5284372;28;20058;-73
2023/04/25 06:41:07;;;;;;;9.40;2.65;;;;;;;8.60;100.00;101244.63;5277862;28;20494;-73
2023/04/25 06:43:38;;;;;;;12.40;2.55;;;;;;;8.68;100.00;101255.34;5279002;28;20024;-73
2023/04/25 06:46:10;;;;;;;12.35;2.97;;;;;;;8.68;100.00;101250.13;5276393;28;20077;-73
2023/04/25 06:48:42;;;;;;;11.95;2.92;;;;;;;8.73;100.00;101258.47;5283809;28;20055;-73
2023/04/25 06:51:13;;;;;;;9.43;2.35;;;;;;;8.75;100.00;101258.34;5278565;28;20478;-73
2023/04/25 06:53:44;;;;;;;10.90;2.58;;;;;;;8.88;100.00;101260.94;5275715;28;20115;-73
2023/04/25 06:56:16;;;;;;;8.82;2.95;;;;;;;9.08;100.00;101265.56;5282616;28;20093;-73
2023/04/25 06:58:47;;;;;;;13.90;3.08;;;;;;;9.05;100.00;101257.94;5282663;28;20488;-73
2023/04/25 07:01:18;;;;;;;9.52;2.42;;;;;;;9.05;100.00;101262.34;5275162;28;20100;-73
2023/04/25 07:03:50;;;;;;;7.80;2.60;;;;;;;9.07;100.00;101263.91;5277985;28;20048;-73
2023/04/25 07:06:22;;;;;;;8.98;2.50;;;;;;;9.15;100.00;101272.03;5272568;28;20032;-73
2023/04/25 07:08:54;;;;;;;10.95;2.58;;;;;;;9.13;100.00;101244.31;5275722;28;20031;-73
2023/04/25 07:11:25;;;;;;;15.98;3.45;;;;;;;9.35;100.00;101261.91;5261557;28;20438;-73
2023/04/25 07:13:57;;;;;;;8.30;2.33;;;;;;;9.58;100.00;101266.28;5281346;28;20039;-73
2023/04/25 07:16:28;;;;;;;9.52;2.30;;;;;;;9.66;100.00;101269.19;5281044;28;20484;-73
2023/04/25 07:18:59;;;;;;;9.40;2.20;;;;;;;9.73;100.00;101278.22;5274467;28;20560;-73
2023/04/25 07:21:31;;;;;;;9.57;2.58;;;;;;;9.78;100.00;101282.31;5279470;28;20027;-73
2023/04/25 07:24:02;;;;;;;7.30;2.80;;;;;;;9.83;100.00;101281.00;5275582;28;20606;-73
2023/04/25 07:26:33;;;;;;;10.02;2.45;;;;;;;9.96;100.00;101288.75;5278379;28;20052;-73
2023/04/25 07:29:05;;;;;;;10.45;2.80;;;;;;;9.99;100.00;101291.97;5277211;28;20359;-71
2023/04/25 07:31:36;;;;;;;6.72;2.00;;;;;;;10.01;100.00;101283.22;5279028;28;20212;-72
2023/04/25 07:34:07;;;;;;;7.43;2.10;;;;;;;10.08;100.00;101300.13;5278408;28;20280;-72
2023/04/25 07:36:39;;;;;;;9.75;2.35;;;;;;;10.00;100.00;101308.56;5264908;28;20438;-72
2023/04/25 07:39:11;;;;;;;7.05;2.20;;;;;;;9.90;100.00;101291.84;5271341;28;20090;-72
2023/04/25 07:41:42;;;;;;;5.97;2.65;;;;;;;9.93;100.00;101304.72;5277609;28;20474;-72
2023/04/25 07:44:13;;;;;;;6.97;2.38;;;;;;;9.99;100.00;101304.25;5273559;28;20162;-72
2023/04/25 07:46:45;;;;;;;11.23;2.22;;;;;;;9.93;100.00;101315.19;5280938;28;20027;-72
2023/04/25 07:49:16;;;;;;;7.90;2.10;;;;;;;9.95;100.00;101308.88;5278644;28;20319;-72
2023/04/25 07:51:47;;;;;;;6.35;1.80;;;;;;;9.95;100.00;101316.72;5275551;28;20121;-72
2023/04/25 07:54:19;;;;;;;8.27;1.90;;;;;;;9.98;100.00;101321.75;5281418;28;20029;-72
2023/04/25 07:56:50;;;;;;;6.90;1.92;;;;;;;10.06;100.00;101315.09;5276834;28;20115;-72
2023/04/25 07:59:22;;;;;;;8.05;2.05;;;;;;;10.17;100.00;101330.84;5281293;28;20067;-72
2023/04/25 08:01:53;;;;;;;7.70;2.00;;;;;;;10.28;100.00;101328.28;5276022;28;20061;-72
2023/04/25 08:04:27;;;;;;;5.80;1.70;;;;;;;10.44;100.00;101326.16;5276486;28;20035;-72
2023/04/25 08:06:58;;;;;;;6.82;1.70;;;;;;;10.47;100.00;101325.09;5277929;28;20410;-72
2023/04/25 08:09:34;;;;;;;8.85;2.13;;;;;;;10.66;100.00;101333.19;5253419;28;20024;-72
2023/04/25 08:12:05;;;;;;;11.75;2.15;;;;;;;10.87;100.00;101329.84;5273083;28;20114;-72
2023/04/25 08:14:38;;;;;;;5.95;1.58;;;;;;;10.70;100.00;101333.78;5273928;28;20490;-73
2023/04/25 08:17:09;;;;;;;10.02;2.45;;;;;;;10.56;100.00;101332.22;5273749;28;20028;-73
2023/04/25 08:19:41;;;;;;;9.02;2.25;;;;;;;10.56;100.00;101347.94;5268717;28;20040;-73
2023/04/25 08:22:12;;;;;;;8.57;2.13;;;;;;;10.65;100.00;101347.25;5280082;28;20111;-73
2023/04/25 08:24:44;;;;;;;10.75;2.88;;;;;;;10.57;100.00;101354.88;5276284;28;20028;-71
2023/04/25 08:27:15;;;;;;;7.97;1.92;;;;;;;10.60;100.00;101356.41;5279004;28;20081;-71
2023/04/25 08:29:46;;;;;;;8.05;1.90;;;;;;;10.71;100.00;101359.03;5273934;28;20024;-71
2023/04/25 08:32:19;;;;;;;8.48;2.40;;;;;;;10.91;100.00;101357.47;5276072;28;20040;-71
2023/04/25 08:34:53;;;;;;;9.70;2.58;;;;;;;11.02;100.00;101361.88;5277818;28;20108;-71
2023/04/25 08:37:25;;;;;;;7.45;2.30;;;;;;;11.05;100.00;101366.91;5256258;28;20127;-71
2023/04/25 08:39:56;;;;;;;7.35;2.30;;;;;;;11.03;100.00;101361.78;5279119;28;20030;-71
2023/04/25 08:42:31;;;;;;;7.68;2.00;;;;;;;11.14;100.00;101368.81;5277354;28;20028;-71
2023/04/25 08:45:03;;;;;;;10.13;2.33;;;;;;;11.20;100.00;101377.00;5281062;28;20044;-71
2023/04/25 08:47:37;;;;;;;8.03;2.57;;;;;;;11.39;100.00;101372.94;5281106;28;20020;-71
2023/04/25 08:50:08;;;;;;;8.00;1.63;;;;;;;11.55;100.00;101378.63;5278701;28;20830;-72
2023/04/25 08:52:45;;;;;;;7.07;1.70;;;;;;;11.46;100.00;101395.09;5275879;28;20031;-71
2023/04/25 08:55:16;;;;;;;8.10;1.88;;;;;;;11.45;100.00;101389.03;5285351;28;20108;-71
2023/04/25 08:57:49;;;;;;;5.70;1.92;;;;;;;11.44;100.00;101384.75;5276328;28;20036;-71
2023/04/25 09:00:21;;;;;;;6.75;1.83;;;;;;;11.39;93.80;101402.63;5279962;28;20059;-71
2023/04/25 09:02:53;;;;;;;9.10;1.80;;;;;;;11.53;99.97;101412.03;5277638;28;20032;-72
2023/04/25 09:05:25;;;;;;;7.82;2.20;;;;;;;11.38;94.53;101413.25;5276534;28;20021;-71
2023/04/25 09:07:56;;;;;;;8.45;2.05;;;;;;;11.47;97.41;101428.25;5262435;28;20067;-71
2023/04/25 09:10:28;;;;;;;8.40;1.95;;;;;;;11.62;100.00;101420.94;5284142;28;20059;-71
2023/04/25 09:13:06;;;;;;;8.25;1.88;;;;;;;11.87;100.00;101419.84;5275266;28;20020;-71
2023/04/25 09:15:49;;;;;;;8.43;1.90;;;;;;;11.96;96.29;101413.00;5278545;28;20482;-72
2023/04/25 09:18:31;;;;;;;7.78;1.63;;;;;;;12.00;93.76;101432.81;5282243;28;20517;-72
2023/04/25 09:21:08;;;;;;;6.07;1.38;;;;;;;11.88;86.69;101440.72;5280758;28;20047;-72
2023/04/25 09:23:45;;;;;;;7.40;1.80;;;;;;;11.75;87.30;101434.78;5281542;28;20032;-71
2023/04/25 09:26:19;;;;;;;6.13;1.40;;;;;;;11.72;92.21;101440.25;5277394;28;20024;-71
2023/04/25 09:29:05;;;;;;;7.25;1.63;;;;;;;11.97;91.70;101443.56;5281485;28;20287;-71
2023/04/25 09:31:36;;;;;;;6.38;1.65;;;;;;;11.76;88.39;101443.47;5280197;28;20028;-71
2023/04/25 09:34:10;;;;;;;8.43;1.73;;;;;;;11.79;89.68;101451.94;5274840;28;20033;-71
2023/04/25 09:36:41;;;;;;;7.63;1.58;;;;;;;11.67;86.34;101450.31;5281829;28;20059;-71
2023/04/25 09:39:15;;;;;;;9.07;1.63;;;;;;;11.87;88.72;101446.94;5286635;28;20111;-71
2023/04/25 09:41:46;;;;;;;5.97;1.80;;;;;;;11.93;91.15;101445.59;5272410;28;20393;-71
2023/04/25 09:44:23;;;;;;;6.43;1.63;;;;;;;12.04;88.02;101445.56;5283409;28;20065;-71
2023/04/25 09:46:54;;;;;;;9.43;1.83;;;;;;;12.21;85.66;101449.44;5285571;28;20025;-71
2023/04/25 09:49:29;;;;;;;7.22;1.63;;;;;;;12.36;88.03;101453.44;5283856;28;20073;-71
2023/04/25 09:52:00;;;;;;;6.53;1.67;;;;;;;12.58;88.44;101441.97;5274901;28;20043;-71
2023/04/25 09:54:32;;;;;;;6.03;1.67;;;;;;;12.77;89.59;101440.44;5283952;28;20028;-71
2023/04/25 09:57:18;;;;;;;8.07;1.83;;;;;;;13.20;88.89;101448.13;5276353;28;20035;-71
2023/04/25 09:59:54;;;;;;;7.03;1.65;;;;;;;12.71;85.72;101448.84;5271944;28;20059;-71
2023/04/25 10:02:27;;;;;;;7.88;1.67;;;;;;;12.36;71.83;101456.06;5277917;28;20043;-72
2023/04/25 10:04:59;;;;;;;;;;;;;;;12.99;76.10;101455.22;5276612;28;20125;-72
2023/04/25 10:07:32;;;;;;;5.32;1.35;;;;;;;12.57;68.84;101452.59;5274699;28;19912;-72
2023/04/25 10:10:04;;;;;;;;;;;;;;;13.15;64.65;101456.41;5272952;28;20025;-72
2023/04/25 10:12:36;;;;;;;4.70;1.30;;;;;;;12.46;54.80;101434.28;5265556;28;20009;-71
2023/04/25 10:15:08;;;;;;;6.30;1.60;;;;;;;12.21;55.27;101452.06;5278786;28;20556;-71
2023/04/25 10:17:40;;;;;;;3.92;1.10;;;;;;;12.44;55.76;101450.19;5281667;28;20073;-71
2023/04/25 10:20:11;;;;;;;5.30;1.40;;;;;;;12.61;55.79;101456.66;5283843;28;20305;-71
2023/04/25 10:22:44;;;;;;;4.47;1.25;;;;;;;12.81;57.96;101447.94;5275686;28;20040;-71
2023/04/25 10:25:16;;;;;;;4.50;1.40;;;;;;;13.00;53.89;101449.00;5276214;28;20040;-72
2023/04/25 10:27:51;;;;;;;5.07;1.45;;;;;;;13.10;48.46;101448.06;5259549;28;20028;-72
2023/04/25 10:30:22;;;;;;;4.68;1.15;;;;;;;13.68;50.81;101451.91;5280186;28;20374;-72
2023/04/25 10:32:55;;;;;;;4.22;1.20;;;;;;;13.53;47.29;101459.34;5258813;28;20090;-71
2023/04/25 10:35:29;;;;;;;4.50;1.25;;;;;;;13.37;46.81;101450.16;5270854;28;20064;-72
2023/04/25 10:38:05;;;;;;;4.32;1.10;;;;;;;13.34;50.61;101460.13;5278445;28;20049;-72
2023/04/25 10:40:36;;;;;;;4.10;1.10;;;;;;;13.23;48.92;101457.56;5271547;28;20032;-72
2023/04/25 10:43:37;;;;;;;3.90;1.05;;;;;;;13.46;49.58;101459.06;5262197;28;20056;-72
2023/04/25 10:46:15;;;;;;;4.45;1.10;;;;;;;13.33;54.56;101464.56;5274153;28;20036;-72
2023/04/25 10:48:51;;;;;;;5.88;1.40;;;;;;;13.26;50.34;101467.81;5279706;28;20111;-72
2023/04/25 10:51:27;;;;;;;5.03;1.83;;;;;;;13.27;53.74;101469.50;5274695;28;20037;-72
2023/04/25 10:54:00;;;;;;;5.55;1.58;;;;;;;13.35;54.07;101464.41;5280142;28;20631;-72
2023/04/25 10:56:33;;;;;;;5.20;1.70;;;;;;;13.77;59.50;101465.09;5255918;28;20469;-72
2023/04/25 10:59:12;;;;;;;6.13;1.65;;;;;;;14.02;53.27;101458.47;5275822;28;20482;-72
2023/04/25 11:01:48;;;;;;;3.65;1.40;;;;;;;13.91;50.03;101465.69;5276285;28;20049;-72
2023/04/25 11:04:30;;;;;;;5.53;1.70;;;;;;;13.63;49.41;101455.75;5273694;28;20117;-72
2023/04/25 11:07:31;;;;;;;9.10;1.88;;;;;;;13.82;54.57;101467.31;5273619;28;20094;-72
2023/04/25 11:10:04;;;;;;;5.07;1.38;;;;;;;13.28;52.63;101479.88;5277530;28;20082;-72
2023/04/25 11:12:35;;;;;;;5.03;1.52;;;;;;;13.05;52.79;101478.38;5280289;28;20080;-72
2023/04/25 11:15:07;;;;;;;3.78;1.55;;;;;;;12.79;59.19;101465.63;5280686;28;20029;-72
2023/04/25 11:17:40;;;;;;;7.68;1.50;;;;;;;12.70;62.45;101486.59;5278762;28;20104;-72
2023/04/25 11:20:13;;;;;;;3.47;1.20;;;;;;;12.47;60.97;101491.97;5279427;28;20063;-72
2023/04/25 11:22:46;;;;;;;6.25;1.63;;;;;;;12.07;68.65;101500.47;5279970;28;20036;-72
2023/04/25 11:25:17;;;;;;;4.97;1.33;;;;;;;11.76;61.08;101507.31;5281231;28;20107;-72
2023/04/25 11:27:57;;;;;;;7.13;1.30;;;;;;;11.54;64.06;101505.53;5278038;28;20294;-72
2023/04/25 11:30:30;;;;;;;6.47;1.33;;;;;;;11.49;71.65;101502.44;5279591;28;20020;-72
2023/04/25 11:33:03;;;;;;;5.03;1.50;;;;;;;11.44;59.77;101507.22;5281456;28;20020;-72
2023/04/25 11:35:34;;;;;;;3.70;1.20;;;;;;;11.45;59.41;101514.13;5273945;28;20039;-72
2023/04/25 11:38:05;;;;;;;5.35;1.05;;;;;;;11.38;57.56;101524.28;5279556;28;20477;-72
2023/04/25 11:40:37;;;;;;;5.10;1.40;;;;;;;11.73;62.50;101507.56;5262752;28;20531;-72
2023/04/25 11:43:08;;;;;;;5.93;1.30;;;;;;;12.15;61.41;101503.31;5275772;28;20024;-72